sensor_id;sensor_type;location;lat;lon;timestamp;P1;durP1;ratioP1;P2;durP2;ratioP2
11539;SDS011;5826;54.756;9.192;2024-02-16T00:01:17;14.27;;;12.88;;
11539;SDS011;5826;54.756;9.192;2024-02-16T00:03:42;13.85;;;12.43;;
11539;SDS011;5826;54.756;9.192;2024-02-16T00:06:08;12.13;;;10.98;;
11539;SDS011;5826;54.756;9.192;2024-02-16T00:08:33;13.98;;;12.57;;
11539;SDS011;5826;54.756;9.192;2024-02-16T00:10:59;12.63;;;11.43;;
11539;SDS011;5826;54.756;9.192;2024-02-16T00:13:25;13.35;;;11.95;;
11539;SDS011;5826;54.756;9.192;2024-02-16T00:15:50;13.15;;;11.85;;
11539;SDS011;5826;54.756;9.192;2024-02-16T00:18:16;11.35;;;10.25;;
11539;SDS011;5826;54.756;9.192;2024-02-16T00:20:41;11.95;;;10.75;;
11539;SDS011;5826;54.756;9.192;2024-02-16T00:23:07;12.10;;;10.85;;
11539;SDS011;5826;54.756;9.192;2024-02-16T00:25:32;11.80;;;10.57;;
11539;SDS011;5826;54.756;9.192;2024-02-16T00:27:58;11.73;;;10.63;;
11539;SDS011;5826;54.756;9.192;2024-02-16T00:30:24;11.90;;;10.80;;
11539;SDS011;5826;54.756;9.192;2024-02-16T00:32:50;11.73;;;10.63;;
11539;SDS011;5826;54.756;9.192;2024-02-16T00:35:16;11.15;;;10.05;;
11539;SDS011;5826;54.756;9.192;2024-02-16T00:37:42;10.73;;;9.73;;
11539;SDS011;5826;54.756;9.192;2024-02-16T00:40:08;10.52;;;9.50;;
11539;SDS011;5826;54.756;9.192;2024-02-16T00:42:34;10.02;;;9.02;;
11539;SDS011;5826;54.756;9.192;2024-02-16T00:44:59;9.85;;;8.85;;
11539;SDS011;5826;54.756;9.192;2024-02-16T00:47:25;9.43;;;8.43;;
11539;SDS011;5826;54.756;9.192;2024-02-16T00:49:52;10.82;;;9.82;;
11539;SDS011;5826;54.756;9.192;2024-02-16T00:52:17;9.80;;;8.80;;
11539;SDS011;5826;54.756;9.192;2024-02-16T00:54:43;10.68;;;9.57;;
11539;SDS011;5826;54.756;9.192;2024-02-16T00:57:08;10.48;;;9.48;;
11539;SDS011;5826;54.756;9.192;2024-02-16T00:59:34;9.23;;;8.40;;
11539;SDS011;5826;54.756;9.192;2024-02-16T01:01:59;10.57;;;9.57;;
11539;SDS011;5826;54.756;9.192;2024-02-16T01:04:25;9.75;;;8.90;;
11539;SDS011;5826;54.756;9.192;2024-02-16T01:06:51;9.07;;;8.18;;
11539;SDS011;5826;54.756;9.192;2024-02-16T01:09:16;8.43;;;7.63;;
11539;SDS011;5826;54.756;9.192;2024-02-16T01:11:42;9.57;;;8.68;;
11539;SDS011;5826;54.756;9.192;2024-02-16T01:14:07;9.82;;;8.85;;
11539;SDS011;5826;54.756;9.192;2024-02-16T01:16:33;9.95;;;8.88;;
11539;SDS011;5826;54.756;9.192;2024-02-16T01:18:59;8.75;;;7.95;;
11539;SDS011;5826;54.756;9.192;2024-02-16T01:21:24;9.65;;;8.75;;
11539;SDS011;5826;54.756;9.192;2024-02-16T01:23:50;9.52;;;8.63;;
11539;SDS011;5826;54.756;9.192;2024-02-16T01:26:15;8.50;;;7.70;;
11539;SDS011;5826;54.756;9.192;2024-02-16T01:28:41;8.10;;;7.32;;
11539;SDS011;5826;54.756;9.192;2024-02-16T01:31:06;8.10;;;7.30;;
11539;SDS011;5826;54.756;9.192;2024-02-16T01:33:35;7.50;;;6.80;;
11539;SDS011;5826;54.756;9.192;2024-02-16T01:36:00;7.75;;;7.05;;
11539;SDS011;5826;54.756;9.192;2024-02-16T01:38:27;7.13;;;6.10;;
11539;SDS011;5826;54.756;9.192;2024-02-16T01:40:52;9.35;;;7.97;;
11539;SDS011;5826;54.756;9.192;2024-02-16T01:43:18;6.75;;;6.15;;
11539;SDS011;5826;54.756;9.192;2024-02-16T01:45:47;6.20;;;5.65;;
11539;SDS011;5826;54.756;9.192;2024-02-16T01:48:15;6.57;;;5.93;;
11539;SDS011;5826;54.756;9.192;2024-02-16T01:50:44;6.38;;;5.78;;
11539;SDS011;5826;54.756;9.192;2024-02-16T01:53:11;6.20;;;5.57;;
11539;SDS011;5826;54.756;9.192;2024-02-16T01:55:38;6.22;;;5.63;;
11539;SDS011;5826;54.756;9.192;2024-02-16T01:58:03;6.80;;;6.20;;
11539;SDS011;5826;54.756;9.192;2024-02-16T02:00:29;8.45;;;7.60;;
11539;SDS011;5826;54.756;9.192;2024-02-16T02:02:55;7.53;;;6.38;;
11539;SDS011;5826;54.756;9.192;2024-02-16T02:05:22;6.90;;;6.03;;
11539;SDS011;5826;54.756;9.192;2024-02-16T02:07:47;6.03;;;5.38;;
11539;SDS011;5826;54.756;9.192;2024-02-16T02:10:13;5.72;;;5.18;;
11539;SDS011;5826;54.756;9.192;2024-02-16T02:12:39;5.25;;;4.78;;
11539;SDS011;5826;54.756;9.192;2024-02-16T02:15:05;5.78;;;5.18;;
11539;SDS011;5826;54.756;9.192;2024-02-16T02:17:31;5.88;;;5.28;;
11539;SDS011;5826;54.756;9.192;2024-02-16T02:19:56;6.35;;;5.70;;
11539;SDS011;5826;54.756;9.192;2024-02-16T02:22:22;5.97;;;5.38;;
11539;SDS011;5826;54.756;9.192;2024-02-16T02:24:48;6.32;;;5.72;;
11539;SDS011;5826;54.756;9.192;2024-02-16T02:27:14;6.13;;;5.32;;
11539;SDS011;5826;54.756;9.192;2024-02-16T02:29:40;5.75;;;5.18;;
11539;SDS011;5826;54.756;9.192;2024-02-16T02:32:06;6.80;;;6.13;;
11539;SDS011;5826;54.756;9.192;2024-02-16T02:34:32;8.77;;;7.90;;
11539;SDS011;5826;54.756;9.192;2024-02-16T02:36:58;6.97;;;6.30;;
11539;SDS011;5826;54.756;9.192;2024-02-16T02:39:24;5.10;;;4.60;;
11539;SDS011;5826;54.756;9.192;2024-02-16T02:41:50;5.30;;;4.80;;
11539;SDS011;5826;54.756;9.192;2024-02-16T02:44:15;4.70;;;4.30;;
11539;SDS011;5826;54.756;9.192;2024-02-16T02:46:40;4.72;;;4.28;;
11539;SDS011;5826;54.756;9.192;2024-02-16T02:49:06;4.50;;;4.10;;
11539;SDS011;5826;54.756;9.192;2024-02-16T02:51:32;4.88;;;4.38;;
11539;SDS011;5826;54.756;9.192;2024-02-16T02:53:57;5.78;;;5.15;;
11539;SDS011;5826;54.756;9.192;2024-02-16T02:56:23;4.82;;;4.32;;
11539;SDS011;5826;54.756;9.192;2024-02-16T02:58:48;5.93;;;4.45;;
11539;SDS011;5826;54.756;9.192;2024-02-16T03:01:14;5.22;;;4.72;;
11539;SDS011;5826;54.756;9.192;2024-02-16T03:03:40;5.72;;;4.75;;
11539;SDS011;5826;54.756;9.192;2024-02-16T03:06:06;4.32;;;3.90;;
11539;SDS011;5826;54.756;9.192;2024-02-16T03:08:32;6.60;;;6.00;;
11539;SDS011;5826;54.756;9.192;2024-02-16T03:10:58;4.85;;;4.28;;
11539;SDS011;5826;54.756;9.192;2024-02-16T03:13:27;7.00;;;6.25;;
11539;SDS011;5826;54.756;9.192;2024-02-16T03:15:52;6.07;;;5.47;;
11539;SDS011;5826;54.756;9.192;2024-02-16T03:18:18;5.22;;;4.72;;
11539;SDS011;5826;54.756;9.192;2024-02-16T03:20:44;5.63;;;4.15;;
11539;SDS011;5826;54.756;9.192;2024-02-16T03:23:13;5.03;;;4.53;;
11539;SDS011;5826;54.756;9.192;2024-02-16T03:25:38;5.35;;;4.15;;
11539;SDS011;5826;54.756;9.192;2024-02-16T03:28:04;3.85;;;3.33;;
11539;SDS011;5826;54.756;9.192;2024-02-16T03:30:30;4.07;;;3.67;;
11539;SDS011;5826;54.756;9.192;2024-02-16T03:32:55;4.72;;;4.22;;
11539;SDS011;5826;54.756;9.192;2024-02-16T03:35:21;5.00;;;4.57;;
11539;SDS011;5826;54.756;9.192;2024-02-16T03:37:46;3.88;;;3.40;;
11539;SDS011;5826;54.756;9.192;2024-02-16T03:40:12;4.97;;;4.18;;
11539;SDS011;5826;54.756;9.192;2024-02-16T03:42:38;4.10;;;3.70;;
11539;SDS011;5826;54.756;9.192;2024-02-16T03:45:05;5.47;;;4.97;;
11539;SDS011;5826;54.756;9.192;2024-02-16T03:47:31;6.00;;;4.65;;
11539;SDS011;5826;54.756;9.192;2024-02-16T03:49:57;4.03;;;3.72;;
11539;SDS011;5826;54.756;9.192;2024-02-16T03:52:22;4.40;;;4.00;;
11539;SDS011;5826;54.756;9.192;2024-02-16T03:54:48;5.03;;;4.35;;
11539;SDS011;5826;54.756;9.192;2024-02-16T03:57:15;4.68;;;4.15;;
11539;SDS011;5826;54.756;9.192;2024-02-16T03:59:42;4.07;;;3.67;;
11539;SDS011;5826;54.756;9.192;2024-02-16T04:02:08;3.90;;;3.53;;
11539;SDS011;5826;54.756;9.192;2024-02-16T04:04:34;4.65;;;3.80;;
11539;SDS011;5826;54.756;9.192;2024-02-16T04:07:00;4.15;;;3.53;;
11539;SDS011;5826;54.756;9.192;2024-02-16T04:09:26;7.40;;;6.40;;
11539;SDS011;5826;54.756;9.192;2024-02-16T04:11:51;5.57;;;4.82;;
11539;SDS011;5826;54.756;9.192;2024-02-16T04:14:17;5.72;;;4.90;;
11539;SDS011;5826;54.756;9.192;2024-02-16T04:16:43;7.00;;;5.85;;
11539;SDS011;5826;54.756;9.192;2024-02-16T04:19:09;6.50;;;5.47;;
11539;SDS011;5826;54.756;9.192;2024-02-16T04:21:35;6.97;;;5.53;;
11539;SDS011;5826;54.756;9.192;2024-02-16T04:24:00;5.28;;;4.78;;
11539;SDS011;5826;54.756;9.192;2024-02-16T04:26:26;5.10;;;4.57;;
11539;SDS011;5826;54.756;9.192;2024-02-16T04:28:51;5.60;;;4.60;;
11539;SDS011;5826;54.756;9.192;2024-02-16T04:31:17;4.72;;;4.13;;
11539;SDS011;5826;54.756;9.192;2024-02-16T04:33:42;5.60;;;5.00;;
11539;SDS011;5826;54.756;9.192;2024-02-16T04:36:08;7.05;;;6.32;;
11539;SDS011;5826;54.756;9.192;2024-02-16T04:38:33;5.43;;;4.93;;
11539;SDS011;5826;54.756;9.192;2024-02-16T04:40:59;5.50;;;4.95;;
11539;SDS011;5826;54.756;9.192;2024-02-16T04:43:24;7.18;;;6.32;;
11539;SDS011;5826;54.756;9.192;2024-02-16T04:45:50;7.18;;;6.00;;
11539;SDS011;5826;54.756;9.192;2024-02-16T04:48:16;7.70;;;6.70;;
11539;SDS011;5826;54.756;9.192;2024-02-16T04:50:41;7.15;;;5.75;;
11539;SDS011;5826;54.756;9.192;2024-02-16T04:53:07;6.97;;;6.03;;
11539;SDS011;5826;54.756;9.192;2024-02-16T04:55:32;6.00;;;5.18;;
11539;SDS011;5826;54.756;9.192;2024-02-16T04:57:58;5.72;;;5.22;;
11539;SDS011;5826;54.756;9.192;2024-02-16T05:00:24;5.25;;;4.75;;
11539;SDS011;5826;54.756;9.192;2024-02-16T05:02:50;5.45;;;4.80;;
11539;SDS011;5826;54.756;9.192;2024-02-16T05:05:17;5.35;;;4.00;;
11539;SDS011;5826;54.756;9.192;2024-02-16T05:07:43;4.93;;;3.78;;
11539;SDS011;5826;54.756;9.192;2024-02-16T05:10:13;4.55;;;4.15;;
11539;SDS011;5826;54.756;9.192;2024-02-16T05:12:38;3.80;;;3.40;;
11539;SDS011;5826;54.756;9.192;2024-02-16T05:15:04;4.15;;;3.38;;
11539;SDS011;5826;54.756;9.192;2024-02-16T05:17:30;5.07;;;4.50;;
11539;SDS011;5826;54.756;9.192;2024-02-16T05:19:56;3.83;;;3.13;;
11539;SDS011;5826;54.756;9.192;2024-02-16T05:22:21;3.80;;;3.15;;
11539;SDS011;5826;54.756;9.192;2024-02-16T05:24:47;4.53;;;3.72;;
11539;SDS011;5826;54.756;9.192;2024-02-16T05:27:13;4.25;;;3.63;;
11539;SDS011;5826;54.756;9.192;2024-02-16T05:29:39;3.33;;;3.03;;
11539;SDS011;5826;54.756;9.192;2024-02-16T05:32:05;4.38;;;3.42;;
11539;SDS011;5826;54.756;9.192;2024-02-16T05:34:31;3.40;;;3.10;;
11539;SDS011;5826;54.756;9.192;2024-02-16T05:37:02;3.58;;;3.25;;
11539;SDS011;5826;54.756;9.192;2024-02-16T05:39:29;3.80;;;3.45;;
11539;SDS011;5826;54.756;9.192;2024-02-16T05:41:57;3.10;;;2.80;;
11539;SDS011;5826;54.756;9.192;2024-02-16T05:44:22;4.07;;;3.30;;
11539;SDS011;5826;54.756;9.192;2024-02-16T05:46:48;3.17;;;2.88;;
11539;SDS011;5826;54.756;9.192;2024-02-16T05:49:14;5.03;;;3.80;;
11539;SDS011;5826;54.756;9.192;2024-02-16T05:51:41;3.45;;;3.03;;
11539;SDS011;5826;54.756;9.192;2024-02-16T05:54:07;3.75;;;3.38;;
11539;SDS011;5826;54.756;9.192;2024-02-16T05:56:33;4.95;;;3.50;;
11539;SDS011;5826;54.756;9.192;2024-02-16T05:58:59;3.53;;;2.97;;
11539;SDS011;5826;54.756;9.192;2024-02-16T06:01:25;3.05;;;2.72;;
11539;SDS011;5826;54.756;9.192;2024-02-16T06:03:51;3.65;;;3.13;;
11539;SDS011;5826;54.756;9.192;2024-02-16T06:06:17;4.18;;;3.40;;
11539;SDS011;5826;54.756;9.192;2024-02-16T06:08:42;3.03;;;2.55;;
11539;SDS011;5826;54.756;9.192;2024-02-16T06:11:08;2.97;;;2.67;;
11539;SDS011;5826;54.756;9.192;2024-02-16T06:13:33;2.95;;;2.65;;
11539;SDS011;5826;54.756;9.192;2024-02-16T06:15:59;2.70;;;2.30;;
11539;SDS011;5826;54.756;9.192;2024-02-16T06:18:24;3.38;;;2.97;;
11539;SDS011;5826;54.756;9.192;2024-02-16T06:20:50;3.50;;;3.20;;
11539;SDS011;5826;54.756;9.192;2024-02-16T06:23:16;4.15;;;3.03;;
11539;SDS011;5826;54.756;9.192;2024-02-16T06:25:42;4.10;;;2.60;;
11539;SDS011;5826;54.756;9.192;2024-02-16T06:28:08;4.53;;;2.60;;
11539;SDS011;5826;54.756;9.192;2024-02-16T06:30:33;3.50;;;2.60;;
11539;SDS011;5826;54.756;9.192;2024-02-16T06:32:59;3.22;;;2.45;;
11539;SDS011;5826;54.756;9.192;2024-02-16T06:35:25;2.97;;;2.67;;
11539;SDS011;5826;54.756;9.192;2024-02-16T06:37:51;4.55;;;2.75;;
11539;SDS011;5826;54.756;9.192;2024-02-16T06:40:16;3.67;;;2.40;;
11539;SDS011;5826;54.756;9.192;2024-02-16T06:42:42;3.28;;;2.47;;
11539;SDS011;5826;54.756;9.192;2024-02-16T06:45:08;2.80;;;2.33;;
11539;SDS011;5826;54.756;9.192;2024-02-16T06:47:34;3.58;;;2.25;;
11539;SDS011;5826;54.756;9.192;2024-02-16T06:49:59;3.63;;;2.47;;
11539;SDS011;5826;54.756;9.192;2024-02-16T06:52:25;3.90;;;2.80;;
11539;SDS011;5826;54.756;9.192;2024-02-16T06:54:50;2.92;;;2.50;;
11539;SDS011;5826;54.756;9.192;2024-02-16T06:57:16;3.70;;;2.53;;
11539;SDS011;5826;54.756;9.192;2024-02-16T06:59:42;5.32;;;3.00;;
11539;SDS011;5826;54.756;9.192;2024-02-16T07:02:07;2.80;;;2.30;;
11539;SDS011;5826;54.756;9.192;2024-02-16T07:04:35;3.70;;;3.10;;
11539;SDS011;5826;54.756;9.192;2024-02-16T07:07:01;5.90;;;3.05;;
11539;SDS011;5826;54.756;9.192;2024-02-16T07:09:27;3.05;;;2.28;;
11539;SDS011;5826;54.756;9.192;2024-02-16T07:11:52;3.45;;;2.50;;
11539;SDS011;5826;54.756;9.192;2024-02-16T07:14:18;4.03;;;2.90;;
11539;SDS011;5826;54.756;9.192;2024-02-16T07:16:43;2.78;;;2.35;;
11539;SDS011;5826;54.756;9.192;2024-02-16T07:19:09;4.53;;;3.15;;
11539;SDS011;5826;54.756;9.192;2024-02-16T07:21:35;3.67;;;2.60;;
11539;SDS011;5826;54.756;9.192;2024-02-16T07:24:00;3.80;;;2.47;;
11539;SDS011;5826;54.756;9.192;2024-02-16T07:26:26;3.97;;;2.78;;
11539;SDS011;5826;54.756;9.192;2024-02-16T07:28:52;3.63;;;3.20;;
11539;SDS011;5826;54.756;9.192;2024-02-16T07:31:18;3.45;;;2.60;;
11539;SDS011;5826;54.756;9.192;2024-02-16T07:33:43;6.60;;;3.15;;
11539;SDS011;5826;54.756;9.192;2024-02-16T07:36:09;4.18;;;2.65;;
11539;SDS011;5826;54.756;9.192;2024-02-16T07:38:35;4.20;;;3.17;;
11539;SDS011;5826;54.756;9.192;2024-02-16T07:41:00;4.55;;;2.83;;
11539;SDS011;5826;54.756;9.192;2024-02-16T07:43:27;5.35;;;3.00;;
11539;SDS011;5826;54.756;9.192;2024-02-16T07:45:52;4.07;;;2.83;;
11539;SDS011;5826;54.756;9.192;2024-02-16T07:48:21;6.63;;;3.08;;
11539;SDS011;5826;54.756;9.192;2024-02-16T07:50:47;3.13;;;2.55;;
11539;SDS011;5826;54.756;9.192;2024-02-16T07:53:13;5.45;;;3.17;;
11539;SDS011;5826;54.756;9.192;2024-02-16T07:55:39;3.08;;;2.65;;
11539;SDS011;5826;54.756;9.192;2024-02-16T07:58:04;3.53;;;2.47;;
11539;SDS011;5826;54.756;9.192;2024-02-16T08:00:30;3.42;;;2.42;;
11539;SDS011;5826;54.756;9.192;2024-02-16T08:02:55;3.13;;;2.30;;
11539;SDS011;5826;54.756;9.192;2024-02-16T08:05:21;3.15;;;2.55;;
11539;SDS011;5826;54.756;9.192;2024-02-16T08:07:47;4.47;;;3.00;;
11539;SDS011;5826;54.756;9.192;2024-02-16T08:10:13;3.90;;;2.63;;
11539;SDS011;5826;54.756;9.192;2024-02-16T08:12:38;5.00;;;2.75;;
11539;SDS011;5826;54.756;9.192;2024-02-16T08:15:04;4.35;;;2.63;;
11539;SDS011;5826;54.756;9.192;2024-02-16T08:17:34;3.63;;;2.65;;
11539;SDS011;5826;54.756;9.192;2024-02-16T08:19:59;3.78;;;3.10;;
11539;SDS011;5826;54.756;9.192;2024-02-16T08:22:25;3.58;;;2.40;;
11539;SDS011;5826;54.756;9.192;2024-02-16T08:24:50;5.30;;;2.45;;
11539;SDS011;5826;54.756;9.192;2024-02-16T08:27:17;2.83;;;2.40;;
11539;SDS011;5826;54.756;9.192;2024-02-16T08:29:43;3.92;;;2.55;;
11539;SDS011;5826;54.756;9.192;2024-02-16T08:32:09;5.40;;;3.20;;
11539;SDS011;5826;54.756;9.192;2024-02-16T08:34:35;4.07;;;2.78;;
11539;SDS011;5826;54.756;9.192;2024-02-16T08:37:02;3.30;;;2.78;;
11539;SDS011;5826;54.756;9.192;2024-02-16T08:39:29;4.93;;;2.90;;
11539;SDS011;5826;54.756;9.192;2024-02-16T08:41:55;5.97;;;3.00;;
11539;SDS011;5826;54.756;9.192;2024-02-16T08:44:21;4.13;;;2.47;;
11539;SDS011;5826;54.756;9.192;2024-02-16T08:46:47;4.38;;;2.92;;
11539;SDS011;5826;54.756;9.192;2024-02-16T08:49:14;4.38;;;2.60;;
11539;SDS011;5826;54.756;9.192;2024-02-16T08:51:40;4.68;;;3.20;;
11539;SDS011;5826;54.756;9.192;2024-02-16T08:54:05;3.63;;;2.30;;
11539;SDS011;5826;54.756;9.192;2024-02-16T08:56:31;4.30;;;2.53;;
11539;SDS011;5826;54.756;9.192;2024-02-16T08:58:57;3.60;;;2.25;;
11539;SDS011;5826;54.756;9.192;2024-02-16T09:01:36;4.20;;;2.95;;
11539;SDS011;5826;54.756;9.192;2024-02-16T09:04:02;3.33;;;2.85;;
11539;SDS011;5826;54.756;9.192;2024-02-16T09:06:28;3.30;;;2.22;;
11539;SDS011;5826;54.756;9.192;2024-02-16T09:08:54;4.22;;;2.90;;
11539;SDS011;5826;54.756;9.192;2024-02-16T09:11:20;5.00;;;2.95;;
11539;SDS011;5826;54.756;9.192;2024-02-16T09:13:46;4.43;;;2.63;;
11539;SDS011;5826;54.756;9.192;2024-02-16T09:16:12;5.20;;;3.40;;
11539;SDS011;5826;54.756;9.192;2024-02-16T09:18:38;6.68;;;3.22;;
11539;SDS011;5826;54.756;9.192;2024-02-16T09:21:03;5.07;;;2.83;;
11539;SDS011;5826;54.756;9.192;2024-02-16T09:23:29;3.90;;;3.10;;
11539;SDS011;5826;54.756;9.192;2024-02-16T09:25:55;3.40;;;2.75;;
11539;SDS011;5826;54.756;9.192;2024-02-16T09:28:21;4.00;;;2.65;;
11539;SDS011;5826;54.756;9.192;2024-02-16T09:30:47;3.15;;;2.60;;
11539;SDS011;5826;54.756;9.192;2024-02-16T09:33:12;4.30;;;2.92;;
11539;SDS011;5826;54.756;9.192;2024-02-16T09:35:38;3.35;;;2.92;;
11539;SDS011;5826;54.756;9.192;2024-02-16T09:38:04;3.28;;;2.65;;
11539;SDS011;5826;54.756;9.192;2024-02-16T09:40:30;5.32;;;3.00;;
11539;SDS011;5826;54.756;9.192;2024-02-16T09:42:56;4.95;;;3.22;;
11539;SDS011;5826;54.756;9.192;2024-02-16T09:45:21;4.32;;;2.90;;
11539;SDS011;5826;54.756;9.192;2024-02-16T09:47:49;4.05;;;3.00;;
11539;SDS011;5826;54.756;9.192;2024-02-16T09:50:16;3.50;;;2.33;;
11539;SDS011;5826;54.756;9.192;2024-02-16T09:52:46;4.47;;;2.85;;
11539;SDS011;5826;54.756;9.192;2024-02-16T09:55:13;3.50;;;2.30;;
11539;SDS011;5826;54.756;9.192;2024-02-16T09:57:40;3.50;;;2.42;;
11539;SDS011;5826;54.756;9.192;2024-02-16T10:00:05;4.88;;;3.28;;
11539;SDS011;5826;54.756;9.192;2024-02-16T10:02:41;4.38;;;3.15;;
11539;SDS011;5826;54.756;9.192;2024-02-16T10:05:14;3.58;;;2.67;;
11539;SDS011;5826;54.756;9.192;2024-02-16T10:07:42;4.82;;;2.90;;
11539;SDS011;5826;54.756;9.192;2024-02-16T10:10:24;3.47;;;2.70;;
11539;SDS011;5826;54.756;9.192;2024-02-16T10:13:06;4.75;;;2.85;;
11539;SDS011;5826;54.756;9.192;2024-02-16T10:15:33;3.72;;;2.90;;
11539;SDS011;5826;54.756;9.192;2024-02-16T10:18:03;2.80;;;2.60;;
11539;SDS011;5826;54.756;9.192;2024-02-16T10:20:32;5.93;;;3.00;;
11539;SDS011;5826;54.756;9.192;2024-02-16T10:23:03;4.32;;;2.92;;
11539;SDS011;5826;54.756;9.192;2024-02-16T10:25:29;4.47;;;3.00;;
11539;SDS011;5826;54.756;9.192;2024-02-16T10:27:55;3.53;;;2.83;;
11539;SDS011;5826;54.756;9.192;2024-02-16T10:30:23;4.00;;;2.83;;
11539;SDS011;5826;54.756;9.192;2024-02-16T10:32:54;3.08;;;2.65;;
11539;SDS011;5826;54.756;9.192;2024-02-16T10:35:20;4.57;;;3.05;;
11539;SDS011;5826;54.756;9.192;2024-02-16T10:37:46;3.40;;;2.50;;
11539;SDS011;5826;54.756;9.192;2024-02-16T10:40:13;3.35;;;2.75;;
11539;SDS011;5826;54.756;9.192;2024-02-16T10:42:47;3.47;;;2.70;;
11539;SDS011;5826;54.756;9.192;2024-02-16T10:45:15;3.83;;;3.08;;
11539;SDS011;5826;54.756;9.192;2024-02-16T10:47:42;5.35;;;3.40;;
11539;SDS011;5826;54.756;9.192;2024-02-16T10:50:07;5.28;;;3.10;;
11539;SDS011;5826;54.756;9.192;2024-02-16T10:52:34;3.70;;;2.70;;
11539;SDS011;5826;54.756;9.192;2024-02-16T10:55:02;4.07;;;2.95;;
11539;SDS011;5826;54.756;9.192;2024-02-16T10:57:29;3.72;;;2.85;;
11539;SDS011;5826;54.756;9.192;2024-02-16T10:59:56;3.60;;;2.70;;
11539;SDS011;5826;54.756;9.192;2024-02-16T11:02:24;5.43;;;2.97;;
11539;SDS011;5826;54.756;9.192;2024-02-16T11:04:51;4.10;;;3.00;;
11539;SDS011;5826;54.756;9.192;2024-02-16T11:07:17;5.68;;;3.30;;
11539;SDS011;5826;54.756;9.192;2024-02-16T11:09:44;5.38;;;3.50;;
11539;SDS011;5826;54.756;9.192;2024-02-16T11:12:13;5.28;;;3.47;;
11539;SDS011;5826;54.756;9.192;2024-02-16T11:14:43;6.00;;;3.40;;
11539;SDS011;5826;54.756;9.192;2024-02-16T11:17:10;4.78;;;3.10;;
11539;SDS011;5826;54.756;9.192;2024-02-16T11:19:40;5.10;;;3.33;;
11539;SDS011;5826;54.756;9.192;2024-02-16T11:22:09;3.85;;;3.22;;
11539;SDS011;5826;54.756;9.192;2024-02-16T11:24:36;4.40;;;3.40;;
11539;SDS011;5826;54.756;9.192;2024-02-16T11:27:07;4.10;;;3.03;;
11539;SDS011;5826;54.756;9.192;2024-02-16T11:29:37;4.82;;;2.83;;
11539;SDS011;5826;54.756;9.192;2024-02-16T11:32:06;7.28;;;3.92;;
11539;SDS011;5826;54.756;9.192;2024-02-16T11:34:33;4.88;;;3.50;;
11539;SDS011;5826;54.756;9.192;2024-02-16T11:36:59;5.10;;;3.40;;
11539;SDS011;5826;54.756;9.192;2024-02-16T11:39:26;3.53;;;2.88;;
11539;SDS011;5826;54.756;9.192;2024-02-16T11:44:27;6.13;;;3.50;;
11539;SDS011;5826;54.756;9.192;2024-02-16T11:47:05;4.25;;;3.15;;
11539;SDS011;5826;54.756;9.192;2024-02-16T11:49:32;4.95;;;3.50;;
11539;SDS011;5826;54.756;9.192;2024-02-16T11:52:00;3.60;;;3.28;;
11539;SDS011;5826;54.756;9.192;2024-02-16T11:54:28;3.85;;;3.40;;
11539;SDS011;5826;54.756;9.192;2024-02-16T11:56:55;3.85;;;3.00;;
11539;SDS011;5826;54.756;9.192;2024-02-16T11:59:21;6.97;;;3.70;;
11539;SDS011;5826;54.756;9.192;2024-02-16T12:04:22;4.35;;;3.72;;
11539;SDS011;5826;54.756;9.192;2024-02-16T12:06:53;4.93;;;3.90;;
11539;SDS011;5826;54.756;9.192;2024-02-16T12:09:22;5.53;;;3.80;;
11539;SDS011;5826;54.756;9.192;2024-02-16T12:11:49;5.05;;;4.05;;
11539;SDS011;5826;54.756;9.192;2024-02-16T12:14:18;4.82;;;4.00;;
11539;SDS011;5826;54.756;9.192;2024-02-16T12:16:49;4.85;;;3.75;;
11539;SDS011;5826;54.756;9.192;2024-02-16T12:19:20;4.70;;;4.10;;
11539;SDS011;5826;54.756;9.192;2024-02-16T12:21:54;6.38;;;4.10;;
11539;SDS011;5826;54.756;9.192;2024-02-16T12:24:22;4.90;;;4.40;;
11539;SDS011;5826;54.756;9.192;2024-02-16T12:26:48;5.45;;;3.78;;
11539;SDS011;5826;54.756;9.192;2024-02-16T12:29:14;4.40;;;4.00;;
11539;SDS011;5826;54.756;9.192;2024-02-16T12:31:41;5.85;;;4.05;;
11539;SDS011;5826;54.756;9.192;2024-02-16T12:34:08;7.72;;;4.28;;
11539;SDS011;5826;54.756;9.192;2024-02-16T12:36:35;5.18;;;4.00;;
11539;SDS011;5826;54.756;9.192;2024-02-16T12:39:02;6.38;;;4.55;;
11539;SDS011;5826;54.756;9.192;2024-02-16T12:41:29;5.15;;;4.18;;
11539;SDS011;5826;54.756;9.192;2024-02-16T12:43:55;10.40;;;5.25;;
11539;SDS011;5826;54.756;9.192;2024-02-16T12:46:21;6.00;;;4.63;;
11539;SDS011;5826;54.756;9.192;2024-02-16T12:48:46;4.50;;;4.07;;
11539;SDS011;5826;54.756;9.192;2024-02-16T12:51:12;6.45;;;4.65;;
11539;SDS011;5826;54.756;9.192;2024-02-16T12:53:37;4.80;;;4.35;;
11539;SDS011;5826;54.756;9.192;2024-02-16T12:56:06;6.63;;;5.10;;
11539;SDS011;5826;54.756;9.192;2024-02-16T12:58:33;6.75;;;5.15;;
11539;SDS011;5826;54.756;9.192;2024-02-16T13:00:58;5.85;;;4.97;;
11539;SDS011;5826;54.756;9.192;2024-02-16T13:03:24;6.65;;;5.00;;
11539;SDS011;5826;54.756;9.192;2024-02-16T13:05:49;5.75;;;4.80;;
11539;SDS011;5826;54.756;9.192;2024-02-16T13:08:15;6.60;;;5.13;;
11539;SDS011;5826;54.756;9.192;2024-02-16T13:10:40;6.18;;;4.80;;
11539;SDS011;5826;54.756;9.192;2024-02-16T13:13:06;5.63;;;4.80;;
11539;SDS011;5826;54.756;9.192;2024-02-16T13:15:31;5.70;;;4.72;;
11539;SDS011;5826;54.756;9.192;2024-02-16T13:17:58;8.82;;;5.65;;
11539;SDS011;5826;54.756;9.192;2024-02-16T13:20:24;7.30;;;5.20;;
11539;SDS011;5826;54.756;9.192;2024-02-16T13:22:49;6.40;;;5.47;;
11539;SDS011;5826;54.756;9.192;2024-02-16T13:25:15;6.38;;;5.00;;
11539;SDS011;5826;54.756;9.192;2024-02-16T13:27:40;6.85;;;5.40;;
11539;SDS011;5826;54.756;9.192;2024-02-16T13:30:06;6.25;;;4.60;;
11539;SDS011;5826;54.756;9.192;2024-02-16T13:32:33;6.65;;;5.38;;
11539;SDS011;5826;54.756;9.192;2024-02-16T13:34:59;6.72;;;5.07;;
11539;SDS011;5826;54.756;9.192;2024-02-16T13:37:24;5.82;;;4.90;;
11539;SDS011;5826;54.756;9.192;2024-02-16T13:39:50;7.35;;;5.18;;
11539;SDS011;5826;54.756;9.192;2024-02-16T13:42:15;6.28;;;5.32;;
11539;SDS011;5826;54.756;9.192;2024-02-16T13:44:41;8.02;;;5.85;;
11539;SDS011;5826;54.756;9.192;2024-02-16T13:47:07;8.55;;;6.60;;
11539;SDS011;5826;54.756;9.192;2024-02-16T13:49:33;8.15;;;5.78;;
11539;SDS011;5826;54.756;9.192;2024-02-16T13:51:59;7.07;;;5.72;;
11539;SDS011;5826;54.756;9.192;2024-02-16T13:54:25;8.80;;;6.25;;
11539;SDS011;5826;54.756;9.192;2024-02-16T13:56:51;7.20;;;5.68;;
11539;SDS011;5826;54.756;9.192;2024-02-16T13:59:17;7.03;;;5.60;;
11539;SDS011;5826;54.756;9.192;2024-02-16T14:01:43;5.30;;;4.75;;
11539;SDS011;5826;54.756;9.192;2024-02-16T14:04:09;6.18;;;5.10;;
11539;SDS011;5826;54.756;9.192;2024-02-16T14:06:35;5.60;;;5.07;;
11539;SDS011;5826;54.756;9.192;2024-02-16T14:09:01;6.22;;;4.45;;
11539;SDS011;5826;54.756;9.192;2024-02-16T14:11:33;6.55;;;5.13;;
11539;SDS011;5826;54.756;9.192;2024-02-16T14:14:00;6.40;;;5.70;;
11539;SDS011;5826;54.756;9.192;2024-02-16T14:16:26;6.35;;;5.43;;
11539;SDS011;5826;54.756;9.192;2024-02-16T14:18:51;6.32;;;5.60;;
11539;SDS011;5826;54.756;9.192;2024-02-16T14:21:17;9.82;;;5.40;;
11539;SDS011;5826;54.756;9.192;2024-02-16T14:23:42;6.43;;;5.22;;
11539;SDS011;5826;54.756;9.192;2024-02-16T14:26:08;5.93;;;4.72;;
11539;SDS011;5826;54.756;9.192;2024-02-16T14:28:35;5.90;;;5.22;;
11539;SDS011;5826;54.756;9.192;2024-02-16T14:31:00;5.53;;;4.53;;
11539;SDS011;5826;54.756;9.192;2024-02-16T14:33:26;6.40;;;4.55;;
11539;SDS011;5826;54.756;9.192;2024-02-16T14:35:51;5.65;;;4.03;;
11539;SDS011;5826;54.756;9.192;2024-02-16T14:38:17;4.20;;;3.80;;
11539;SDS011;5826;54.756;9.192;2024-02-16T14:40:42;7.28;;;4.05;;
11539;SDS011;5826;54.756;9.192;2024-02-16T14:43:08;5.00;;;4.05;;
11539;SDS011;5826;54.756;9.192;2024-02-16T14:45:33;4.55;;;3.65;;
11539;SDS011;5826;54.756;9.192;2024-02-16T14:47:59;6.43;;;4.13;;
11539;SDS011;5826;54.756;9.192;2024-02-16T14:50:24;4.95;;;4.30;;
11539;SDS011;5826;54.756;9.192;2024-02-16T14:52:50;5.10;;;4.13;;
11539;SDS011;5826;54.756;9.192;2024-02-16T14:55:15;6.45;;;5.53;;
11539;SDS011;5826;54.756;9.192;2024-02-16T14:57:41;4.63;;;4.10;;
11539;SDS011;5826;54.756;9.192;2024-02-16T15:00:08;4.30;;;3.53;;